sensor_id;sensor_type;location;lat;lon;timestamp;pressure;altitude;pressure_sealevel;temperature;humidity
61740;BME280;47645;45.288;12.038;2022-07-22T00:04:25;1015.3099843465;;;25.75390625;55.0247427171635
61740;BME280;47645;45.288;12.038;2022-07-22T00:14:26;1015.2386753930815;;;25.7234375;53.03332674202798
61740;BME280;47645;45.288;12.038;2022-07-22T00:24:28;1015.2804518062703;;;25.8916015625;57.35540130863811
61740;BME280;47645;45.288;12.038;2022-07-22T00:34:29;1015.2596691800869;;;25.7693359375;58.56433879600992
61740;BME280;47645;45.288;12.038;2022-07-22T00:44:30;1015.136059049931;;;25.7080078125;58.758615004907725
61740;BME280;47645;45.288;12.038;2022-07-22T00:54:31;1015.1265588854512;;;25.4736328125;53.26346480572378
61740;BME280;47645;45.288;12.038;2022-07-22T01:04:33;1015.1176516833892;;;25.6673828125;57.19631219214328
61740;BME280;47645;45.288;12.038;2022-07-22T01:14:34;1015.1016148274787;;;25.6009765625;58.9505698211365
61740;BME280;47645;45.288;12.038;2022-07-22T01:24:35;1015.0118643874862;;;25.4939453125;59.11972313206272
61740;BME280;47645;45.288;12.038;2022-07-22T01:34:37;1014.9469495614997;;;25.3970703125;59.01699316676495
61740;BME280;47645;45.288;12.038;2022-07-22T01:44:38;1014.8835768365868;;;25.1576171875;54.02376824786807
61740;BME280;47645;45.288;12.038;2022-07-22T01:54:40;1014.8406777604005;;;25.3615234375;59.160720334244935
61740;BME280;47645;45.288;12.038;2022-07-22T02:04:41;1014.9087806347754;;;25.0556640625;59.632601972341334
61740;BME280;47645;45.288;12.038;2022-07-22T02:14:42;1014.9790583722404;;;24.82109375;59.55352232304959
61740;BME280;47645;45.288;12.038;2022-07-22T02:24:43;1015.0136251283959;;;24.5763671875;62.08343256458902
61740;BME280;47645;45.288;12.038;2022-07-22T02:34:45;1014.949993134325;;;24.790625;57.8048079114506
61740;BME280;47645;45.288;12.038;2022-07-22T02:44:46;1014.915205864229;;;24.805859375;60.78630666775322
61740;BME280;47645;45.288;12.038;2022-07-22T02:54:47;1014.874605456135;;;24.7498046875;60.928322365252484
61740;BME280;47645;45.288;12.038;2022-07-22T03:04:49;1014.8642140241993;;;24.596875;55.02245597047505
61740;BME280;47645;45.288;12.038;2022-07-22T03:14:50;1014.9194293587511;;;24.8109375;60.539136324512576
61740;BME280;47645;45.288;12.038;2022-07-22T03:24:51;1014.9847594967223;;;24.70390625;60.989863504898565
61740;BME280;47645;45.288;12.038;2022-07-22T03:34:53;1014.9520851692156;;;24.8466796875;59.647286774198314
61740;BME280;47645;45.288;12.038;2022-07-22T03:44:54;1015.0527025467969;;;24.515234375;60.946290867929605
61740;BME280;47645;45.288;12.038;2022-07-22T03:54:55;1015.0316816849491;;;24.4439453125;56.92682952604723
61740;BME280;47645;45.288;12.038;2022-07-22T04:04:57;1015.0864604731179;;;24.72421875;54.074127144919835
61740;BME280;47645;45.288;12.038;2022-07-22T04:14:58;1015.1272437119869;;;24.8466796875;54.1875131830147
61740;BME280;47645;45.288;12.038;2022-07-22T04:24:59;1015.1707235273553;;;24.9841796875;54.76916110690509
61740;BME280;47645;45.288;12.038;2022-07-22T04:35:00;1015.2845217874611;;;25.126953125;59.202632239049706
61740;BME280;47645;45.288;12.038;2022-07-22T04:45:03;1015.2178529319799;;;25.32578125;59.42481633979042
61740;BME280;47645;45.288;12.038;2022-07-22T04:55:04;1015.1833890450439;;;25.718359375;58.123083762334204
61740;BME280;47645;45.288;12.038;2022-07-22T05:10:05;1015.3632220313208;;;26.06484375;55.155784412254704
61740;BME280;47645;45.288;12.038;2022-07-22T05:20:07;1015.3782229256666;;;26.2892578125;54.589861875230405
61740;BME280;47645;45.288;12.038;2022-07-22T05:30:08;1015.4278493863407;;;26.4421875;53.11620021187148
61740;BME280;47645;45.288;12.038;2022-07-22T05:40:09;1015.3598535011147;;;26.7123046875;52.60724379310032
61740;BME280;47645;45.288;12.038;2022-07-22T05:50:10;1015.4213192374996;;;26.9263671875;51.09158439215127
61740;BME280;47645;45.288;12.038;2022-07-22T06:00:12;1015.421099248811;;;27.660546875;49.55406005816321
61740;BME280;47645;45.288;12.038;2022-07-22T06:10:13;1015.4933105757784;;;27.77265625;49.02654190890103
61740;BME280;47645;45.288;12.038;2022-07-22T06:20:14;1015.6018709691275;;;28.0376953125;49.07735811103048
61740;BME280;47645;45.288;12.038;2022-07-22T06:30:15;1015.6194953442013;;;28.2263671875;47.83937030939168
61740;BME280;47645;45.288;12.038;2022-07-22T06:40:17;1015.6204027859883;;;28.5322265625;47.91370097802167
61740;BME280;47645;45.288;12.038;2022-07-22T06:50:18;1015.7047839055194;;;29.021484375;44.66617759502769
61740;BME280;47645;45.288;12.038;2022-07-22T07:00:19;1015.7454180649852;;;29.39375;43.54520634179993
61740;BME280;47645;45.288;12.038;2022-07-22T07:10:21;1015.7294272042944;;;29.6841796875;41.82435673452707
61740;BME280;47645;45.288;12.038;2022-07-22T07:20:22;1015.749295484772;;;30.0462890625;41.824499069767995
61740;BME280;47645;45.288;12.038;2022-07-22T07:30:25;1015.7899676810924;;;30.3775390625;41.988908126789354
61740;BME280;47645;45.288;12.038;2022-07-22T07:40:25;1015.8278384308779;;;30.826171875;41.02567480854793
61740;BME280;47645;45.288;12.038;2022-07-22T07:50:27;1015.9031415514884;;;31.0912109375;39.684532811849564
61740;BME280;47645;45.288;12.038;2022-07-22T08:00:31;1015.9866695746869;;;31.3666015625;38.635493395509656
61740;BME280;47645;45.288;12.038;2022-07-22T08:10:29;1015.9401511449271;;;31.5755859375;38.68127326967651
61740;BME280;47645;45.288;12.038;2022-07-22T08:20:32;1015.9514070239785;;;31.8865234375;39.056116358689266
61740;BME280;47645;45.288;12.038;2022-07-22T08:30:34;1016.05874946094;;;32.04453125;36.11237659870369
61740;BME280;47645;45.288;12.038;2022-07-22T08:40:35;1015.9866910797691;;;32.5900390625;36.54233228683906
61740;BME280;47645;45.288;12.038;2022-07-22T08:50:36;1015.9844202781164;;;32.72265625;36.262960360062024
61740;BME280;47645;45.288;12.038;2022-07-22T09:00:38;1016.0100705350181;;;33.5076171875;34.06202683922667
61740;BME280;47645;45.288;12.038;2022-07-22T09:10:40;1015.979693111866;;;33.369921875;35.473157313022696
61740;BME280;47645;45.288;12.038;2022-07-22T09:20:41;1015.9821399311556;;;34.1244140625;29.88556407599426
61740;BME280;47645;45.288;12.038;2022-07-22T09:30:49;1015.9437226101297;;;34.369140625;33.56551848155989
61740;BME280;47645;45.288;12.038;2022-07-22T09:40:46;1015.8258281523315;;;34.9146484375;32.68745122322728
61740;BME280;47645;45.288;12.038;2022-07-22T09:50:47;1015.7822418765568;;;35.3888671875;29.98085567746466
61740;BME280;47645;45.288;12.038;2022-07-22T10:00:49;1015.7000862399027;;;36.153515625;31.367084048874325
61740;BME280;47645;45.288;12.038;2022-07-22T10:10:50;1015.6318043892511;;;36.8826171875;29.586788052202184
61740;BME280;47645;45.288;12.038;2022-07-22T10:21:01;1015.5790508611711;;;37.71875;28.562673123779486
61740;BME280;47645;45.288;12.038;2022-07-22T10:30:54;1015.5546130985686;;;38.3712890625;26.455181961187378
61740;BME280;47645;45.288;12.038;2022-07-22T10:40:57;1015.4681391811089;;;39.01875;26.491550923614728
61740;BME280;47645;45.288;12.038;2022-07-22T10:51:08;1015.4619284717497;;;39.834375;25.450221313512703
61740;BME280;47645;45.288;12.038;2022-07-22T11:01:00;1015.4321032348162;;;40.614453125;24.04427784559529
61740;BME280;47645;45.288;12.038;2022-07-22T11:11:01;1015.4076332748073;;;40.2576171875;19.867679698751484
61740;BME280;47645;45.288;12.038;2022-07-22T11:21:04;1015.3102457548218;;;40.7419921875;24.111704945755225
61740;BME280;47645;45.288;12.038;2022-07-22T11:31:06;1015.2267975161096;;;41.384375;18.272774159443713
61740;BME280;47645;45.288;12.038;2022-07-22T11:41:08;1015.0959878322825;;;42.541796875;21.64768088209325
61740;BME280;47645;45.288;12.038;2022-07-22T11:51:12;1015.06175748696;;;42.745703125;22.22527502507049
61740;BME280;47645;45.288;12.038;2022-07-22T12:01:14;1015.0089459272863;;;43.6736328125;17.19627265832742
61740;BME280;47645;45.288;12.038;2022-07-22T12:11:16;1014.9371507912704;;;43.9591796875;16.022104696396443
61740;BME280;47645;45.288;12.038;2022-07-22T12:21:18;1014.8737287329601;;;44.4740234375;19.421556617614737
61740;BME280;47645;45.288;12.038;2022-07-22T12:31:20;1014.7137797532091;;;44.1884765625;20.094728268138912
61740;BME280;47645;45.288;12.038;2022-07-22T12:41:26;1014.6423355809931;;;44.0814453125;20.16035478048632
61740;BME280;47645;45.288;12.038;2022-07-22T12:51:25;1014.567891846463;;;44.3568359375;20.359636709592063
61740;BME280;47645;45.288;12.038;2022-07-22T13:01:27;1014.5170454218425;;;44.41796875;20.24106471173235
61740;BME280;47645;45.288;12.038;2022-07-22T13:11:29;1014.4462494307663;;;44.63203125;19.85253967429968
61740;BME280;47645;45.288;12.038;2022-07-22T13:21:33;1014.3253191063413;;;45.0603515625;16.36352899498339
61740;BME280;47645;45.288;12.038;2022-07-22T13:31:34;1014.3311236760825;;;44.4435546875;18.93621136498831
61740;BME280;47645;45.288;12.038;2022-07-22T13:41:36;1014.2445239532594;;;44.4587890625;20.007555925791966
61740;BME280;47645;45.288;12.038;2022-07-22T13:51:38;1014.2140490711349;;;44.9685546875;19.492805022782218
61740;BME280;47645;45.288;12.038;2022-07-22T14:01:41;1014.1094571724138;;;44.41796875;19.437015419921185
61740;BME280;47645;45.288;12.038;2022-07-22T14:11:43;1014.0910929528269;;;45.0349609375;16.97017876571027
61740;BME280;47645;45.288;12.038;2022-07-22T14:21:47;1013.9417228906442;;;45.3560546875;17.200636409425073
61740;BME280;47645;45.288;12.038;2022-07-22T14:31:48;1013.8590181020771;;;44.3669921875;19.640688871441135
61740;BME280;47645;45.288;12.038;2022-07-22T14:41:50;1013.7983343871197;;;44.1630859375;20.059273335709488
61740;BME280;47645;45.288;12.038;2022-07-22T14:51:53;1013.7161982278961;;;44.040625;20.66791944308727
61740;BME280;47645;45.288;12.038;2022-07-22T15:01:55;1013.6977615903409;;;43.8060546875;20.8320781142065
61740;BME280;47645;45.288;12.038;2022-07-22T15:11:57;1013.7001319085872;;;43.16875;21.331557613841184
61740;BME280;47645;45.288;12.038;2022-07-22T15:22:00;1013.686382552016;;;42.7099609375;21.323980357683983
61740;BME280;47645;45.288;12.038;2022-07-22T15:32:02;1013.708898785196;;;42.8833984375;21.65470259699665
61740;BME280;47645;45.288;12.038;2022-07-22T15:42:05;1013.6859695661173;;;42.6080078125;21.595240299388948
61740;BME280;47645;45.288;12.038;2022-07-22T15:52:07;1013.5735866159698;;;41.9400390625;21.518745189949726
61740;BME280;47645;45.288;12.038;2022-07-22T16:02:09;1013.552088777492;;;42.2458984375;21.61297962872616
61740;BME280;47645;45.288;12.038;2022-07-22T16:12:11;1013.4031354232839;;;41.6953125;22.256336494386233
61740;BME280;47645;45.288;12.038;2022-07-22T16:22:14;1013.381713979494;;;41.5423828125;22.60211259873235
61740;BME280;47645;45.288;12.038;2022-07-22T16:32:16;1013.3100723847556;;;41.4556640625;22.473548573053204
61740;BME280;47645;45.288;12.038;2022-07-22T16:42:18;1013.2134884976698;;;40.7419921875;22.693498275883535
61740;BME280;47645;45.288;12.038;2022-07-22T16:52:20;1013.2060289161818;;;40.4615234375;23.56227940872338
61740;BME280;47645;45.288;12.038;2022-07-22T17:02:23;1013.1873085826304;;;40.1353515625;24.486791819996686
61740;BME280;47645;45.288;12.038;2022-07-22T17:12:25;1013.175855597014;;;39.9669921875;24.986968101048628
61740;BME280;47645;45.288;12.038;2022-07-22T17:22:27;1013.1243742541716;;;39.4927734375;25.35509651990615
61740;BME280;47645;45.288;12.038;2022-07-22T17:32:29;1013.1248287490597;;;39.033984375;26.00979791587768
61740;BME280;47645;45.288;12.038;2022-07-22T17:42:31;1013.1479783877614;;;38.335546875;27.09804969138206
61740;BME280;47645;45.288;12.038;2022-07-22T17:52:33;1013.0841381864869;;;38.151953125;27.553885177705094
61740;BME280;47645;45.288;12.038;2022-07-22T18:02:35;1012.9876352561477;;;37.5453125;28.873180749059802
61740;BME280;47645;45.288;12.038;2022-07-22T18:12:37;1012.9888208036044;;;36.9794921875;30.079719258350543
61740;BME280;47645;45.288;12.038;2022-07-22T18:22:40;1013.0268786839875;;;36.454296875;31.013028125264476
61740;BME280;47645;45.288;12.038;2022-07-22T18:32:40;1012.8970001048413;;;36.0158203125;32.03791477699378
61740;BME280;47645;45.288;12.038;2022-07-22T18:42:42;1013.0545709109158;;;35.4041015625;33.14071556015902
61740;BME280;47645;45.288;12.038;2022-07-22T18:52:45;1013.262409389752;;;34.4763671875;35.480162639395274
61740;BME280;47645;45.288;12.038;2022-07-22T19:02:46;1013.3794422237764;;;34.3998046875;35.37472356790172
61740;BME280;47645;45.288;12.038;2022-07-22T19:12:49;1013.4225411508097;;;33.844140625;36.18885152116101
61740;BME280;47645;45.288;12.038;2022-07-22T19:22:51;1013.5825174707593;;;33.471875;37.72046741351825
61740;BME280;47645;45.288;12.038;2022-07-22T19:32:53;1013.6635711216356;;;32.8958984375;38.624082579413646
61740;BME280;47645;45.288;12.038;2022-07-22T19:42:54;1013.7366298073395;;;32.8296875;38.305645102524146
61740;BME280;47645;45.288;12.038;2022-07-22T19:53:00;1013.9330090844778;;;32.039453125;39.79766627009931
61740;BME280;47645;45.288;12.038;2022-07-22T20:02:58;1013.9145482969085;;;31.7642578125;40.68239491546078
61740;BME280;47645;45.288;12.038;2022-07-22T20:13:01;1013.9553785174616;;;32.019140625;39.85667272165362
61740;BME280;47645;45.288;12.038;2022-07-22T20:23:02;1014.1122073307065;;;31.213671875;41.39544379463662
61740;BME280;47645;45.288;12.038;2022-07-22T20:33:02;1014.2180125488991;;;30.8974609375;41.83052907182501
61740;BME280;47645;45.288;12.038;2022-07-22T20:43:03;1014.3407514960112;;;30.5611328125;43.497374213926015
61740;BME280;47645;45.288;12.038;2022-07-22T20:53:05;1014.4101417464894;;;30.12265625;43.466283402822576
61740;BME280;47645;45.288;12.038;2022-07-22T21:03:07;1014.4380437285777;;;29.6078125;45.72950196253176
61740;BME280;47645;45.288;12.038;2022-07-22T21:13:08;1014.3472978541733;;;29.602734375;46.76506088590343
61740;BME280;47645;45.288;12.038;2022-07-22T21:23:10;1014.3556326442407;;;29.205078125;46.32789050387312
61740;BME280;47645;45.288;12.038;2022-07-22T21:33:11;1014.286892926573;;;29.40390625;45.52884570831075
61740;BME280;47645;45.288;12.038;2022-07-22T21:43:13;1014.2188639041367;;;29.215234375;45.17041470794353
61740;BME280;47645;45.288;12.038;2022-07-22T21:53:15;1014.196375016763;;;29.09296875;45.62531449809126
61740;BME280;47645;45.288;12.038;2022-07-22T22:03:16;1014.1902974830701;;;28.70546875;47.60673334276376
61740;BME280;47645;45.288;12.038;2022-07-22T22:13:18;1014.2041547136972;;;28.5373046875;48.0828794639416
61740;BME280;47645;45.288;12.038;2022-07-22T22:23:19;1014.2585228966866;;;28.369140625;46.80311531319286
61740;BME280;47645;45.288;12.038;2022-07-22T22:33:21;1014.2810660471757;;;28.3283203125;48.0681825942128
61740;BME280;47645;45.288;12.038;2022-07-22T22:43:22;1014.2393455421453;;;28.0478515625;51.884702787776995
61740;BME280;47645;45.288;12.038;2022-07-22T22:53:24;1014.254945092809;;;27.8083984375;52.740120473132784
61740;BME280;47645;45.288;12.038;2022-07-22T23:03:25;1014.3321142347012;;;27.471875;52.35953183139708
61740;BME280;47645;45.288;12.038;2022-07-22T23:13:27;1014.339376781802;;;27.278125;54.027056248835606
61740;BME280;47645;45.288;12.038;2022-07-22T23:23:29;1014.1846714971703;;;27.155859375;55.26053381673644
61740;BME280;47645;45.288;12.038;2022-07-22T23:33:30;1014.2206211794404;;;27.3291015625;54.76662404629396
61740;BME280;47645;45.288;12.038;2022-07-22T23:43:32;1014.0998812080375;;;27.1404296875;54.19756405451491
61740;BME280;47645;45.288;12.038;2022-07-22T23:53:33;1014.0724924529646;;;27.1201171875;54.50476776670996
